Time;durP1;ratioP1;P1;durP2;ratioP2;P2;SDS_P1;SDS_P2;PMS_P1;PMS_P2;Temp;Humidity;BMP_temperature;BMP_pressure;BME280_temperature;BME280_humidity;BME280_pressure;Samples;Min_cycle;Max_cycle;Signal;HPM_P1;HPM_P2
2020/12/07 00:01:51;;;;;;;32.70;21.90;;;4.30;99.90;;;;;;4990314;28;20273;-79
2020/12/07 00:04:17;;;;;;;33.97;24.20;;;4.40;99.90;;;;;;4993162;28;20225;-77
2020/12/07 00:06:43;;;;;;;34.87;23.77;;;4.40;99.90;;;;;;4973649;28;20188;-79
2020/12/07 00:09:08;;;;;;;32.27;23.27;;;4.40;99.90;;;;;;4954333;28;20246;-79
2020/12/07 00:11:34;;;;;;;29.90;21.70;;;4.40;99.90;;;;;;4961057;28;20213;-80
2020/12/07 00:14:00;;;;;;;37.83;24.00;;;4.50;99.90;;;;;;4972534;28;20159;-77
2020/12/07 00:16:26;;;;;;;36.67;22.42;;;4.50;99.90;;;;;;4962158;28;20233;-77
2020/12/07 00:18:52;;;;;;;32.78;23.90;;;4.50;99.90;;;;;;4992786;28;20660;-78
2020/12/07 00:21:18;;;;;;;38.50;23.67;;;4.40;99.90;;;;;;4991364;28;20232;-78
2020/12/07 00:23:44;;;;;;;38.90;24.03;;;4.40;99.90;;;;;;4992740;28;20171;-78
2020/12/07 00:26:10;;;;;;;33.23;22.80;;;4.40;99.90;;;;;;4986875;28;20375;-78
2020/12/07 00:28:39;;;;;;;34.55;21.88;;;4.40;99.90;;;;;;4975322;28;20178;-78
2020/12/07 00:31:05;;;;;;;38.72;23.77;;;4.40;99.90;;;;;;4993084;28;20225;-80
2020/12/07 00:33:32;;;;;;;33.17;22.17;;;4.40;99.90;;;;;;4974046;28;20199;-78
2020/12/07 00:35:58;;;;;;;32.13;22.23;;;4.40;99.90;;;;;;4938925;28;20223;-79
2020/12/07 00:38:23;;;;;;;33.80;22.80;;;4.40;99.90;;;;;;4955137;29;20658;-80
2020/12/07 00:40:50;;;;;;;31.97;23.90;;;4.40;99.90;;;;;;4956779;28;20216;-79
2020/12/07 00:43:17;;;;;;;35.72;23.40;;;4.40;99.90;;;;;;4993536;28;20405;-78
2020/12/07 00:45:42;;;;;;;37.40;24.50;;;4.40;99.90;;;;;;4983875;28;20686;-79
2020/12/07 00:48:08;;;;;;;31.87;22.17;;;4.40;99.90;;;;;;4991153;28;20244;-79
2020/12/07 00:50:34;;;;;;;36.60;23.87;;;4.40;99.90;;;;;;4993294;28;20227;-79
2020/12/07 00:52:59;;;;;;;38.67;24.13;;;4.40;99.90;;;;;;4973832;28;20253;-78
2020/12/07 00:55:25;;;;;;;37.00;22.83;;;4.40;99.90;;;;;;4956444;28;20698;-79
2020/12/07 00:57:51;;;;;;;30.80;22.10;;;4.40;99.90;;;;;;4954872;28;20235;-79
2020/12/07 01:00:16;;;;;;;32.90;21.67;;;4.40;99.90;;;;;;4954467;28;20679;-79
2020/12/07 01:02:42;;;;;;;29.63;22.20;;;4.50;99.90;;;;;;4969912;28;20243;-78
2020/12/07 01:05:08;;;;;;;33.67;24.20;;;4.50;99.90;;;;;;4971135;28;20578;-79
2020/12/07 01:07:33;;;;;;;34.40;23.67;;;4.40;99.90;;;;;;4973549;28;20550;-79
2020/12/07 01:09:59;;;;;;;34.57;22.23;;;4.40;99.90;;;;;;4972557;28;20617;-79
2020/12/07 01:12:25;;;;;;;34.47;24.30;;;4.50;99.90;;;;;;4973932;28;20171;-79
2020/12/07 01:14:51;;;;;;;34.20;22.83;;;4.50;99.90;;;;;;4973088;28;20697;-79
2020/12/07 01:17:18;;;;;;;35.28;22.60;;;4.40;99.90;;;;;;4974052;28;20191;-78
2020/12/07 01:19:44;;;;;;;34.53;22.17;;;4.40;99.90;;;;;;4972324;28;20878;-78
2020/12/07 01:22:10;;;;;;;31.55;22.67;;;4.40;99.90;;;;;;4973364;28;20531;-79
2020/12/07 01:24:36;;;;;;;40.13;25.27;;;4.40;99.90;;;;;;4951913;28;20200;-79
2020/12/07 01:27:01;;;;;;;35.13;23.80;;;4.40;99.90;;;;;;4960088;28;20427;-79
2020/12/07 01:29:27;;;;;;;32.83;24.47;;;4.40;99.90;;;;;;4953256;28;20211;-77
2020/12/07 01:31:53;;;;;;;32.00;22.13;;;4.40;99.90;;;;;;4981256;28;20253;-78
2020/12/07 01:34:19;;;;;;;32.80;24.50;;;4.40;99.90;;;;;;4974110;28;20210;-78
2020/12/07 01:36:44;;;;;;;33.23;23.73;;;4.40;99.90;;;;;;4958276;28;20202;-79
2020/12/07 01:39:10;;;;;;;31.63;22.30;;;4.40;99.90;;;;;;4992041;28;20452;-79
2020/12/07 01:41:35;;;;;;;35.83;24.00;;;4.40;99.90;;;;;;4981062;28;20210;-77
2020/12/07 01:44:01;;;;;;;37.53;24.87;;;4.40;99.90;;;;;;4970562;28;20602;-79
2020/12/07 01:46:27;;;;;;;32.70;23.80;;;4.40;99.90;;;;;;4977455;28;20172;-78
2020/12/07 01:48:54;;;;;;;37.53;25.47;;;4.40;99.90;;;;;;4952806;28;20219;-78
2020/12/07 01:51:21;;;;;;;35.15;23.25;;;4.40;99.90;;;;;;4969137;28;20472;-78
2020/12/07 01:53:48;;;;;;;32.92;22.90;;;4.40;99.90;;;;;;4991940;28;20583;-79
2020/12/07 01:56:19;;;;;;;35.75;23.73;;;4.30;99.90;;;;;;4975357;28;20220;-79
2020/12/07 01:58:45;;;;;;;36.70;24.05;;;4.30;99.90;;;;;;4953928;29;20172;-79
2020/12/07 02:01:11;;;;;;;34.03;24.23;;;4.30;99.90;;;;;;4963116;28;20202;-79
2020/12/07 02:03:37;;;;;;;32.53;23.40;;;4.30;99.90;;;;;;4974956;28;20190;-78
2020/12/07 02:06:03;;;;;;;33.93;24.20;;;4.30;99.90;;;;;;4969206;28;20221;-78
2020/12/07 02:08:28;;;;;;;34.90;24.35;;;4.30;99.90;;;;;;4973909;28;20427;-78
2020/12/07 02:10:54;;;;;;;33.27;23.90;;;4.30;99.90;;;;;;4984473;28;20692;-78
2020/12/07 02:13:20;;;;;;;30.45;21.92;;;4.30;99.90;;;;;;4993463;28;20171;-77
2020/12/07 02:15:46;;;;;;;36.70;23.10;;;4.20;99.90;;;;;;4980243;28;20211;-79
2020/12/07 02:18:12;;;;;;;33.08;23.10;;;4.20;99.90;;;;;;4976105;28;20202;-77
2020/12/07 02:20:37;;;;;;;26.60;21.50;;;4.20;99.90;;;;;;4975481;28;20698;-78
2020/12/07 02:23:03;;;;;;;31.97;23.10;;;4.20;99.90;;;;;;4975732;28;20171;-78
2020/12/07 02:25:29;;;;;;;33.63;23.67;;;4.20;99.90;;;;;;4968541;28;20218;-78
2020/12/07 02:27:55;;;;;;;28.10;22.37;;;4.20;99.90;;;;;;4956848;28;20450;-78
2020/12/07 02:30:25;;;;;;;26.25;20.42;;;4.20;99.90;;;;;;4948063;28;20797;-80
2020/12/07 02:32:52;;;;;;;32.13;22.27;;;4.20;99.90;;;;;;4969092;28;20175;-79
2020/12/07 02:35:18;;;;;;;31.75;21.77;;;4.20;99.90;;;;;;4974243;28;20227;-78
2020/12/07 02:37:45;;;;;;;33.22;21.92;;;4.10;99.90;;;;;;4960224;28;20208;-78
2020/12/07 02:40:11;;;;;;;25.83;21.05;;;4.20;99.90;;;;;;4956486;28;20208;-79
2020/12/07 02:42:38;;;;;;;27.52;21.42;;;4.20;99.90;;;;;;4985605;28;20534;-79
2020/12/07 02:45:13;;;;;;;31.95;21.27;;;4.30;99.90;;;;;;4975622;28;20207;-80
2020/12/07 02:47:40;;;;;;;26.85;20.35;;;4.20;99.90;;;;;;4963012;28;20175;-78
2020/12/07 02:50:07;;;;;;;28.20;20.58;;;4.20;99.90;;;;;;4955094;28;20522;-78
2020/12/07 02:52:33;;;;;;;29.23;20.63;;;4.20;99.90;;;;;;4972065;28;20245;-79
2020/12/07 02:55:09;;;;;;;28.77;21.42;;;4.10;99.90;;;;;;4954730;28;20290;-79
2020/12/07 02:57:35;;;;;;;31.38;21.85;;;4.10;99.90;;;;;;4959003;28;20207;-79
2020/12/07 03:00:01;;;;;;;29.08;21.70;;;4.10;99.90;;;;;;4956797;28;20227;-79
2020/12/07 03:02:27;;;;;;;30.42;20.13;;;4.10;99.90;;;;;;4976148;28;20250;-79
2020/12/07 03:04:53;;;;;;;28.33;21.77;;;4.10;99.90;;;;;;4990978;28;20286;-79
2020/12/07 03:07:18;;;;;;;28.03;19.47;;;4.10;99.90;;;;;;4970224;28;20183;-79
2020/12/07 03:09:44;;;;;;;28.60;19.67;;;4.20;99.90;;;;;;4967855;28;20206;-79
2020/12/07 03:12:10;;;;;;;25.10;19.20;;;4.20;99.90;;;;;;4994620;28;20744;-79
2020/12/07 03:14:36;;;;;;;23.83;18.70;;;4.10;99.90;;;;;;4992186;28;20477;-77
2020/12/07 03:17:03;;;;;;;24.37;16.80;;;4.10;99.90;;;;;;4976745;28;20278;-79
2020/12/07 03:19:28;;;;;;;24.35;18.23;;;4.20;99.90;;;;;;4974750;28;20222;-78
2020/12/07 03:21:54;;;;;;;27.93;17.47;;;4.20;99.90;;;;;;4981516;28;20186;-78
2020/12/07 03:24:20;;;;;;;24.20;17.70;;;4.20;99.90;;;;;;4991330;28;20233;-77
2020/12/07 03:26:46;;;;;;;23.90;17.60;;;4.20;99.90;;;;;;4966948;28;20662;-78
2020/12/07 03:29:12;;;;;;;24.60;17.42;;;4.20;99.90;;;;;;4973053;28;20438;-78
2020/12/07 03:31:39;;;;;;;22.50;16.77;;;4.20;99.90;;;;;;4970230;28;20203;-79
2020/12/07 03:34:06;;;;;;;25.08;18.45;;;4.20;99.90;;;;;;4965213;28;20428;-78
2020/12/07 03:36:32;;;;;;;23.48;17.15;;;4.20;99.90;;;;;;4972795;28;20183;-77
2020/12/07 03:38:58;;;;;;;23.83;17.35;;;4.20;99.90;;;;;;4986091;28;20181;-78
2020/12/07 03:41:24;;;;;;;22.40;15.87;;;4.20;99.90;;;;;;4993307;28;20186;-78
2020/12/07 03:43:49;;;;;;;22.87;17.17;;;4.20;99.90;;;;;;4984994;28;20712;-78
2020/12/07 03:46:15;;;;;;;27.00;17.80;;;4.20;99.90;;;;;;4967089;28;20183;-78
2020/12/07 03:48:42;;;;;;;24.60;17.30;;;4.20;99.90;;;;;;4983164;28;20206;-78
2020/12/07 03:51:07;;;;;;;23.80;16.88;;;4.20;99.90;;;;;;4991084;28;20468;-78
2020/12/07 03:53:35;;;;;;;21.30;15.53;;;4.30;99.90;;;;;;4978488;28;20175;-77
2020/12/07 03:56:02;;;;;;;23.60;16.48;;;4.20;99.90;;;;;;4978376;28;20466;-77
2020/12/07 03:58:28;;;;;;;22.10;15.55;;;4.20;99.90;;;;;;4977527;28;20222;-77
2020/12/07 04:00:55;;;;;;;22.40;17.05;;;4.20;99.90;;;;;;4992321;28;20214;-77
2020/12/07 04:03:22;;;;;;;26.35;17.65;;;4.20;99.90;;;;;;4975751;28;20185;-77
2020/12/07 04:05:55;;;;;;;26.90;18.02;;;4.30;99.90;;;;;;4972220;28;20214;-77
2020/12/07 04:08:21;;;;;;;24.42;16.73;;;4.20;99.90;;;;;;4976092;28;20182;-77
2020/12/07 04:10:46;;;;;;;21.77;17.00;;;4.20;99.90;;;;;;4991879;28;20214;-77
2020/12/07 04:13:12;;;;;;;21.47;15.10;;;4.20;99.90;;;;;;4989332;28;20182;-77
2020/12/07 04:15:38;;;;;;;23.40;15.77;;;4.20;99.90;;;;;;4974708;28;20229;-77
2020/12/07 04:18:04;;;;;;;21.97;15.73;;;4.20;99.90;;;;;;4947936;28;20214;-77
2020/12/07 04:20:29;;;;;;;21.87;16.70;;;4.30;99.90;;;;;;4970094;28;20262;-77
2020/12/07 04:22:55;;;;;;;22.73;17.20;;;4.20;99.90;;;;;;4988191;28;20472;-77
2020/12/07 04:25:23;;;;;;;25.33;17.40;;;4.20;99.90;;;;;;4988232;28;20198;-78
2020/12/07 04:27:49;;;;;;;23.40;16.90;;;4.20;99.90;;;;;;4988112;28;20178;-77
2020/12/07 04:30:15;;;;;;;24.45;16.98;;;4.30;99.90;;;;;;4955763;28;20234;-78
2020/12/07 04:32:40;;;;;;;26.80;17.67;;;4.20;99.90;;;;;;4973844;28;20642;-78
2020/12/07 04:35:06;;;;;;;21.27;16.37;;;4.20;99.90;;;;;;4978274;28;20685;-78
2020/12/07 04:37:32;;;;;;;25.47;16.60;;;4.20;99.90;;;;;;4984683;28;20573;-78
2020/12/07 04:39:57;;;;;;;22.27;17.03;;;4.20;99.90;;;;;;4972720;28;20207;-78
2020/12/07 04:42:24;;;;;;;22.40;16.90;;;4.30;99.90;;;;;;4966735;28;20198;-77
2020/12/07 04:44:50;;;;;;;25.27;17.50;;;4.30;99.90;;;;;;4972656;28;20221;-78
2020/12/07 04:47:18;;;;;;;20.70;16.77;;;4.20;99.90;;;;;;4978861;28;20187;-77
2020/12/07 04:52:14;;;;;;;24.08;17.67;;;4.30;99.90;;;;;;4989840;28;20218;-77
2020/12/07 04:54:46;;;;;;;26.25;17.33;;;4.30;99.90;;;;;;4991648;28;20214;-77
2020/12/07 04:57:14;;;;;;;25.58;16.73;;;4.20;99.90;;;;;;4982483;28;20209;-78
2020/12/07 04:59:41;;;;;;;19.52;14.65;;;4.20;99.90;;;;;;4977840;28;20207;-78
2020/12/07 05:02:10;;;;;;;24.38;15.73;;;4.20;99.90;;;;;;4983955;28;20200;-77
2020/12/07 05:04:36;;;;;;;22.20;15.32;;;4.20;99.90;;;;;;4978670;28;20210;-77
2020/12/07 05:07:04;;;;;;;22.48;15.40;;;4.20;99.90;;;;;;4964803;28;20649;-77
2020/12/07 05:09:31;;;;;;;22.02;15.85;;;4.20;99.90;;;;;;4983039;28;20357;-77
2020/12/07 05:12:00;;;;;;;23.38;15.45;;;4.20;99.90;;;;;;4992233;28;20198;-77
2020/12/07 05:14:26;;;;;;;24.15;15.70;;;4.20;99.90;;;;;;4987733;28;20202;-78
2020/12/07 05:16:52;;;;;;;23.98;15.75;;;4.20;99.90;;;;;;4983509;28;20280;-77
2020/12/07 05:19:21;;;;;;;20.60;14.83;;;4.20;99.90;;;;;;4972525;28;20318;-78
2020/12/07 05:21:48;;;;;;;21.55;15.13;;;4.20;99.90;;;;;;4980592;28;20615;-78
2020/12/07 05:24:14;;;;;;;17.58;12.98;;;4.20;99.90;;;;;;4956225;28;20221;-78
2020/12/07 05:26:42;;;;;;;20.15;15.25;;;4.20;99.90;;;;;;4980151;28;20206;-78
2020/12/07 05:29:17;;;;;;;20.35;15.05;;;4.20;99.90;;;;;;4982574;28;20179;-77
2020/12/07 05:31:44;;;;;;;22.92;14.43;;;4.20;99.90;;;;;;4972299;28;20182;-77
2020/12/07 05:34:10;;;;;;;22.92;14.07;;;4.20;99.90;;;;;;4982952;28;20682;-77
2020/12/07 05:36:35;;;;;;;19.20;13.07;;;4.20;99.90;;;;;;4982774;28;20185;-77
2020/12/07 05:39:04;;;;;;;18.13;13.17;;;4.20;99.90;;;;;;4990596;28;20583;-77
2020/12/07 05:41:30;;;;;;;17.40;12.63;;;4.20;99.90;;;;;;4976216;28;20558;-77
2020/12/07 05:43:58;;;;;;;16.60;11.60;;;4.20;99.90;;;;;;4983347;28;20177;-78
2020/12/07 05:46:26;;;;;;;18.48;13.10;;;4.20;99.90;;;;;;4986682;28;20163;-78
2020/12/07 05:48:53;;;;;;;16.17;13.00;;;4.20;99.90;;;;;;4994280;28;20178;-78
2020/12/07 05:51:23;;;;;;;16.75;10.88;;;4.20;99.90;;;;;;4984165;28;20207;-77
2020/12/07 05:53:50;;;;;;;14.10;10.57;;;4.20;99.90;;;;;;4976540;28;20246;-77
2020/12/07 05:56:17;;;;;;;17.13;11.13;;;4.30;99.90;;;;;;4984390;28;20211;-77
2020/12/07 05:58:58;;;;;;;17.52;12.13;;;4.30;99.90;;;;;;4982088;28;20198;-78
2020/12/07 06:01:27;;;;;;;15.32;10.40;;;4.30;99.90;;;;;;4975754;28;20199;-77
2020/12/07 06:03:54;;;;;;;17.15;11.38;;;4.30;99.90;;;;;;4975703;28;20174;-77
2020/12/07 06:06:34;;;;;;;15.88;11.90;;;4.20;99.90;;;;;;4986222;28;20167;-77
2020/12/07 06:09:05;;;;;;;16.50;11.65;;;4.30;99.90;;;;;;4977860;28;20641;-76
2020/12/07 06:11:38;;;;;;;16.38;12.02;;;4.20;99.90;;;;;;4979419;28;20579;-77
2020/12/07 06:14:05;;;;;;;15.23;11.20;;;4.20;99.90;;;;;;4991547;28;20185;-77
2020/12/07 06:16:36;;;;;;;17.20;11.65;;;4.20;99.90;;;;;;4981007;28;20182;-77
2020/12/07 06:19:11;;;;;;;14.15;10.20;;;4.20;99.90;;;;;;4989996;28;20174;-77
2020/12/07 06:21:38;;;;;;;15.80;11.38;;;4.20;99.90;;;;;;4981484;28;20190;-77
2020/12/07 06:24:04;;;;;;;17.30;11.40;;;4.20;99.90;;;;;;4975361;28;20262;-77
2020/12/07 06:26:30;;;;;;;13.38;10.50;;;4.20;99.90;;;;;;4986904;28;20529;-78
2020/12/07 06:28:57;;;;;;;17.10;10.60;;;4.20;99.90;;;;;;4978384;28;20167;-76
2020/12/07 06:31:25;;;;;;;14.75;10.07;;;4.30;99.90;;;;;;4990740;28;20218;-77
2020/12/07 06:33:52;;;;;;;11.13;9.13;;;4.20;99.90;;;;;;4985605;28;20269;-77
2020/12/07 06:36:27;;;;;;;15.07;10.23;;;4.20;99.90;;;;;;4980535;28;20167;-77
2020/12/07 06:38:57;;;;;;;15.80;9.30;;;4.20;99.90;;;;;;4993196;28;20202;-77
2020/12/07 06:41:39;;;;;;;16.08;10.13;;;4.20;99.90;;;;;;4990794;28;20187;-77
2020/12/07 06:44:09;;;;;;;13.73;9.68;;;4.20;99.90;;;;;;4960301;28;20570;-77
2020/12/07 06:46:55;;;;;;;15.48;9.48;;;4.20;99.90;;;;;;4982645;28;20213;-77
2020/12/07 06:52:14;;;;;;;10.77;6.90;;;4.20;99.90;;;;;;4993336;28;20210;-77
2020/12/07 06:57:41;;;;;;;10.27;6.82;;;4.20;99.90;;;;;;4963793;28;20703;-77
2020/12/07 07:00:07;;;;;;;9.63;6.28;;;4.20;99.90;;;;;;4990033;28;20253;-76
2020/12/07 07:02:33;;;;;;;10.77;7.47;;;4.20;99.90;;;;;;4975809;28;20455;-76
2020/12/07 07:05:01;;;;;;;10.02;6.60;;;4.30;99.90;;;;;;4984913;28;20214;-77
2020/12/07 07:07:29;;;;;;;10.23;6.85;;;4.30;99.90;;;;;;4980313;28;20175;-76
2020/12/07 07:09:55;;;;;;;9.65;6.68;;;4.30;99.90;;;;;;4973892;28;20637;-76
2020/12/07 07:12:21;;;;;;;9.50;6.53;;;4.30;99.90;;;;;;4974205;28;20686;-76
2020/12/07 07:14:52;;;;;;;7.35;5.57;;;4.20;99.90;;;;;;4989925;28;20221;-76
2020/12/07 07:17:18;;;;;;;8.70;6.30;;;4.30;99.90;;;;;;4992386;28;20206;-76
2020/12/07 07:19:44;;;;;;;12.48;7.88;;;4.30;99.90;;;;;;4979392;28;20245;-78
2020/12/07 07:22:10;;;;;;;11.90;7.80;;;4.30;99.90;;;;;;4975267;28;20566;-77
2020/12/07 07:24:42;;;;;;;15.00;8.07;;;4.30;99.90;;;;;;4986730;28;20450;-77
2020/12/07 07:29:53;;;;;;;10.43;7.97;;;4.30;99.90;;;;;;4977651;28;20772;-76
2020/12/07 07:32:21;;;;;;;11.33;7.10;;;4.20;99.90;;;;;;4976804;28;20202;-76
2020/12/07 07:34:47;;;;;;;14.48;8.45;;;4.30;99.90;;;;;;4979677;28;20703;-76
2020/12/07 07:37:13;;;;;;;12.60;7.43;;;4.20;99.90;;;;;;4991698;28;20673;-76
2020/12/07 07:39:39;;;;;;;11.20;7.88;;;4.30;99.90;;;;;;4987235;28;20689;-79
2020/12/07 07:42:13;;;;;;;8.43;6.10;;;4.20;99.90;;;;;;4982923;28;20234;-77
2020/12/07 07:44:42;;;;;;;13.35;7.43;;;4.30;99.90;;;;;;4959561;28;20246;-77
2020/12/07 07:47:14;;;;;;;12.32;7.65;;;4.30;99.90;;;;;;4999056;23;20250;-78
2020/12/07 07:50:23;;;;;;;9.85;6.88;;;4.20;99.90;;;;;;4976170;28;20233;-77
2020/12/07 08:17:15;;;;;;;7.80;5.15;;;4.40;99.90;;;;;;4972373;28;20257;-77
2020/12/07 08:19:42;;;;;;;7.95;4.82;;;4.30;99.90;;;;;;4972838;28;20203;-79
2020/12/07 08:22:19;;;;;;;6.60;5.28;;;4.30;99.90;;;;;;4973289;28;20218;-77
2020/12/07 08:24:55;;;;;;;7.65;5.30;;;4.30;99.90;;;;;;4973116;28;20215;-77
2020/12/07 08:27:21;;;;;;;5.93;4.95;;;4.30;99.90;;;;;;4971986;28;20186;-76
2020/12/07 08:29:46;;;;;;;5.93;5.00;;;4.40;99.90;;;;;;4955656;28;20211;-77
2020/12/07 08:32:24;;;;;;;7.90;5.73;;;4.30;99.90;;;;;;4964003;28;20237;-77
2020/12/07 08:34:50;;;;;;;6.22;5.28;;;4.30;99.90;;;;;;4961537;28;20215;-77
2020/12/07 08:37:16;;;;;;;6.10;5.00;;;4.40;99.90;;;;;;4962533;28;20566;-77
2020/12/07 08:39:43;;;;;;;6.57;4.63;;;4.40;99.90;;;;;;4973407;28;20219;-78
2020/12/07 08:42:08;;;;;;;4.97;4.45;;;4.40;99.90;;;;;;4972128;28;20485;-76
2020/12/07 08:44:34;;;;;;;5.40;4.20;;;4.50;99.90;;;;;;4962931;28;20212;-77
2020/12/07 08:47:00;;;;;;;4.70;3.10;;;4.40;99.90;;;;;;4967217;28;20446;-77
2020/12/07 08:49:25;;;;;;;8.10;3.87;;;4.50;99.90;;;;;;4971763;28;20226;-77
2020/12/07 08:51:53;;;;;;;5.00;3.70;;;4.60;99.90;;;;;;4972946;28;20539;-77
2020/12/07 08:54:18;;;;;;;5.45;2.95;;;4.60;99.90;;;;;;4952209;28;20830;-76
2020/12/07 08:56:44;;;;;;;5.67;3.20;;;4.60;99.90;;;;;;4965644;28;20578;-77
2020/12/07 08:59:10;;;;;;;3.93;3.50;;;4.60;99.90;;;;;;4971438;28;20218;-76
2020/12/07 09:01:35;;;;;;;4.60;4.10;;;4.60;99.90;;;;;;4972242;28;20190;-77
2020/12/07 09:04:02;;;;;;;4.80;3.63;;;4.60;99.90;;;;;;4966152;28;20466;-76
2020/12/07 09:06:28;;;;;;;4.65;3.00;;;4.60;99.90;;;;;;4966678;28;20172;-76
2020/12/07 09:08:53;;;;;;;4.57;2.87;;;4.60;99.90;;;;;;4967878;28;20176;-77
2020/12/07 09:11:19;;;;;;;2.80;2.40;;;4.60;99.90;;;;;;4971746;28;20273;-78
2020/12/07 09:13:46;;;;;;;2.60;1.92;;;4.60;99.90;;;;;;4972146;28;20175;-77
2020/12/07 09:16:12;;;;;;;4.57;2.95;;;4.70;99.90;;;;;;4963969;28;20251;-77
2020/12/07 09:18:39;;;;;;;4.13;2.40;;;4.80;99.90;;;;;;4955242;28;20677;-78
2020/12/07 09:21:05;;;;;;;3.00;2.40;;;4.80;99.90;;;;;;4970754;28;20754;-77
2020/12/07 09:23:31;;;;;;;4.00;2.17;;;4.80;99.90;;;;;;4954454;28;20183;-77
2020/12/07 09:25:57;;;;;;;6.90;3.42;;;4.90;99.90;;;;;;4968937;28;20285;-77
2020/12/07 09:28:23;;;;;;;3.03;2.43;;;4.80;99.90;;;;;;4954649;28;20707;-77
2020/12/07 09:30:48;;;;;;;3.10;2.60;;;4.80;99.90;;;;;;4967037;28;20830;-78
2020/12/07 09:33:14;;;;;;;2.97;2.43;;;4.70;99.90;;;;;;4971661;28;20642;-78
2020/12/07 09:35:40;;;;;;;3.37;2.60;;;4.70;99.90;;;;;;4970741;28;20215;-78
2020/12/07 09:38:07;;;;;;;3.00;2.47;;;4.70;99.90;;;;;;4971660;28;20207;-77
2020/12/07 09:40:32;;;;;;;3.33;2.20;;;4.80;99.90;;;;;;4971221;28;20211;-77
2020/12/07 09:43:00;;;;;;;7.13;2.70;;;4.80;99.90;;;;;;4971897;28;20664;-78
2020/12/07 09:45:26;;;;;;;3.53;2.65;;;4.70;99.90;;;;;;4967694;28;20218;-79
2020/12/07 09:47:52;;;;;;;3.80;2.67;;;4.80;99.90;;;;;;4959884;28;20561;-77
2020/12/07 09:50:17;;;;;;;5.13;2.70;;;4.80;99.90;;;;;;4953671;28;20219;-78
2020/12/07 09:52:43;;;;;;;4.20;2.73;;;4.80;99.90;;;;;;4968075;28;20666;-77
2020/12/07 09:55:09;;;;;;;5.67;4.10;;;4.80;99.90;;;;;;4970662;28;20262;-79
2020/12/07 09:57:34;;;;;;;6.60;3.70;;;4.80;99.90;;;;;;4962701;28;20716;-79
2020/12/07 10:00:00;;;;;;;5.53;4.00;;;4.80;99.90;;;;;;4971112;28;20353;-77
2020/12/07 10:02:26;;;;;;;5.53;3.90;;;4.90;99.90;;;;;;4953863;28;20195;-78
2020/12/07 10:04:51;;;;;;;5.20;3.77;;;4.90;99.90;;;;;;4966738;28;20212;-79
2020/12/07 10:07:17;;;;;;;5.07;3.67;;;4.80;99.90;;;;;;4945254;28;20494;-79
2020/12/07 10:09:43;;;;;;;3.63;2.67;;;4.90;99.90;;;;;;4972037;28;20682;-77
2020/12/07 10:12:09;;;;;;;3.97;3.00;;;4.90;99.90;;;;;;4971260;28;20197;-78
2020/12/07 10:14:35;;;;;;;4.30;3.00;;;4.80;99.90;;;;;;4971263;28;20301;-78
2020/12/07 10:17:01;;;;;;;3.13;2.83;;;4.80;99.90;;;;;;4967772;28;20257;-77
2020/12/07 10:19:27;;;;;;;4.15;2.88;;;4.90;99.90;;;;;;4971200;28;20306;-77
2020/12/07 10:21:54;;;;;;;4.30;3.90;;;4.90;99.90;;;;;;4972046;28;20765;-79
2020/12/07 10:24:21;;;;;;;2.75;2.55;;;4.90;99.90;;;;;;4968392;28;20203;-77
2020/12/07 10:26:47;;;;;;;6.40;3.55;;;5.10;99.90;;;;;;4950865;28;20190;-79
2020/12/07 10:29:12;;;;;;;3.63;2.80;;;5.10;99.90;;;;;;4972863;28;20211;-79
2020/12/07 10:31:38;;;;;;;4.90;3.97;;;5.00;99.90;;;;;;4974904;28;21003;-79
2020/12/07 10:34:04;;;;;;;4.00;3.40;;;5.00;99.90;;;;;;4974810;28;20436;-79
2020/12/07 10:36:29;;;;;;;3.70;2.83;;;5.10;99.90;;;;;;4967821;28;20178;-78
2020/12/07 10:38:55;;;;;;;4.53;3.70;;;5.10;99.90;;;;;;4974341;28;20207;-78
2020/12/07 10:41:28;;;;;;;5.27;3.30;;;5.10;99.90;;;;;;4974945;28;20430;-77
2020/12/07 10:43:54;;;;;;;3.83;3.28;;;5.10;99.90;;;;;;4973956;28;20255;-78
2020/12/07 10:46:20;;;;;;;6.38;4.55;;;5.10;99.90;;;;;;4968551;28;20188;-77
2020/12/07 10:48:45;;;;;;;7.37;4.40;;;5.10;99.90;;;;;;4974745;28;20209;-78
2020/12/07 10:51:12;;;;;;;5.70;3.90;;;5.10;99.90;;;;;;4972694;28;20211;-78
2020/12/07 10:53:38;;;;;;;6.82;3.58;;;5.20;99.90;;;;;;4974765;28;20581;-77
2020/12/07 10:56:10;;;;;;;7.35;3.40;;;5.20;99.90;;;;;;4968835;28;20739;-77
2020/12/07 10:58:38;;;;;;;4.55;3.05;;;5.10;99.90;;;;;;4974152;28;20199;-78
2020/12/07 11:01:03;;;;;;;5.22;3.70;;;5.10;99.90;;;;;;4973831;28;20214;-78
2020/12/07 11:03:29;;;;;;;6.30;3.50;;;5.10;99.90;;;;;;4974197;28;20176;-78
2020/12/07 11:05:55;;;;;;;5.40;4.20;;;5.00;99.90;;;;;;4970919;28;20202;-77
2020/12/07 11:08:35;;;;;;;4.40;3.57;;;5.10;99.90;;;;;;4965960;28;20244;-78
2020/12/07 11:11:01;;;;;;;5.30;3.65;;;5.20;99.90;;;;;;4973723;28;20293;-77
2020/12/07 11:13:29;;;;;;;5.80;4.07;;;5.10;99.90;;;;;;4972808;28;20306;-78
2020/12/07 11:15:57;;;;;;;5.88;4.30;;;5.20;99.90;;;;;;4967120;28;20211;-78
2020/12/07 11:18:22;;;;;;;5.82;3.72;;;5.20;99.90;;;;;;4974328;28;20195;-78
2020/12/07 11:20:48;;;;;;;5.80;3.93;;;5.20;99.90;;;;;;4973217;28;20581;-78
2020/12/07 11:23:14;;;;;;;5.93;4.00;;;5.20;99.90;;;;;;4974207;28;20186;-77
2020/12/07 11:25:39;;;;;;;4.90;3.40;;;5.10;99.90;;;;;;4973784;28;20242;-78
2020/12/07 11:28:05;;;;;;;5.17;3.60;;;5.10;99.90;;;;;;4972088;28;20713;-78
2020/12/07 11:30:31;;;;;;;3.97;3.50;;;5.10;99.90;;;;;;4973494;28;20630;-78
2020/12/07 11:32:56;;;;;;;4.27;3.27;;;5.10;99.90;;;;;;4973944;28;20657;-77
2020/12/07 11:35:22;;;;;;;6.17;3.90;;;5.10;99.90;;;;;;4960653;28;20275;-78
2020/12/07 11:37:54;;;;;;;3.87;3.23;;;5.10;99.90;;;;;;4963569;28;20254;-78
2020/12/07 11:41:13;;;;;;;3.65;3.33;;;5.20;99.90;;;;;;4975985;28;20238;-77
2020/12/07 11:45:43;;;;;;;5.47;4.13;;;5.30;99.90;;;;;;4964563;28;20699;-77
2020/12/07 11:48:12;;;;;;;5.77;4.00;;;5.20;99.90;;;;;;4972197;28;20250;-78
2020/12/07 11:50:38;;;;;;;4.15;3.10;;;5.20;99.90;;;;;;4972324;28;20227;-78
2020/12/07 11:53:03;;;;;;;3.50;2.90;;;5.20;99.90;;;;;;4973196;28;20733;-78
2020/12/07 11:55:30;;;;;;;3.37;2.77;;;5.20;99.90;;;;;;4968164;28;20223;-78
2020/12/07 11:57:56;;;;;;;4.95;3.53;;;5.20;99.90;;;;;;4971759;28;20615;-78
2020/12/07 12:00:23;;;;;;;4.53;3.50;;;5.10;99.90;;;;;;4972389;28;20215;-77
2020/12/07 12:02:48;;;;;;;3.80;3.33;;;5.10;99.90;;;;;;4973415;28;20439;-77
2020/12/07 12:05:14;;;;;;;4.50;3.27;;;5.10;99.90;;;;;;4971678;28;20240;-77
2020/12/07 12:07:40;;;;;;;4.20;3.70;;;5.20;99.90;;;;;;4970812;28;20681;-77
2020/12/07 12:10:06;;;;;;;4.00;3.60;;;5.10;99.90;;;;;;4972098;28;20689;-77
2020/12/07 12:12:31;;;;;;;4.13;3.47;;;5.10;99.90;;;;;;4973189;28;20432;-76
2020/12/07 12:14:57;;;;;;;3.80;3.30;;;5.10;99.90;;;;;;4970118;28;20830;-77
2020/12/07 12:17:23;;;;;;;4.13;3.43;;;5.10;99.90;;;;;;4953691;28;20215;-77
2020/12/07 12:19:48;;;;;;;5.03;3.20;;;5.00;99.90;;;;;;4972473;28;20222;-77
2020/12/07 12:22:14;;;;;;;7.20;4.43;;;5.00;99.90;;;;;;4972613;28;20192;-77
2020/12/07 12:24:40;;;;;;;5.50;4.30;;;5.00;99.90;;;;;;4964668;28;20458;-77
2020/12/07 12:27:06;;;;;;;4.30;3.10;;;5.10;99.90;;;;;;4960024;28;20179;-77
2020/12/07 12:29:32;;;;;;;5.32;3.70;;;5.10;99.90;;;;;;4955108;28;20231;-77
2020/12/07 12:31:57;;;;;;;4.77;3.77;;;5.10;99.90;;;;;;4972872;28;20203;-77
2020/12/07 12:34:23;;;;;;;7.23;4.20;;;5.10;99.90;;;;;;4967933;28;20204;-77
2020/12/07 12:36:49;;;;;;;7.33;4.23;;;5.10;99.90;;;;;;4961542;28;20542;-77
2020/12/07 12:39:15;;;;;;;7.60;4.82;;;5.10;99.90;;;;;;4972079;28;20214;-77
2020/12/07 12:41:42;;;;;;;4.95;4.15;;;5.10;99.90;;;;;;4972412;28;20286;-76
2020/12/07 12:44:08;;;;;;;7.60;4.90;;;5.10;99.90;;;;;;4971917;28;20190;-78
2020/12/07 12:46:37;;;;;;;6.35;4.65;;;5.20;99.90;;;;;;4970385;28;20183;-78
2020/12/07 12:49:04;;;;;;;6.70;4.50;;;5.20;99.90;;;;;;4971776;28;20598;-77
2020/12/07 12:51:30;;;;;;;5.85;4.72;;;5.30;99.90;;;;;;4965304;28;20286;-78
2020/12/07 12:53:55;;;;;;;5.80;3.80;;;5.30;99.90;;;;;;4971383;28;20262;-78
2020/12/07 12:56:22;;;;;;;7.00;4.67;;;5.30;99.90;;;;;;4952615;28;20426;-77
2020/12/07 12:58:48;;;;;;;5.43;4.13;;;5.40;99.90;;;;;;4972246;28;20199;-77
2020/12/07 13:01:14;;;;;;;4.38;3.97;;;5.40;99.90;;;;;;4971783;28;20302;-78
2020/12/07 13:03:41;;;;;;;4.40;4.00;;;5.30;99.90;;;;;;4972455;28;20607;-77
2020/12/07 13:06:07;;;;;;;5.80;3.97;;;5.30;99.90;;;;;;4963733;28;20470;-77
2020/12/07 13:08:32;;;;;;;5.63;4.47;;;5.50;99.90;;;;;;4965366;28;20577;-77
2020/12/07 13:10:59;;;;;;;5.23;4.30;;;5.60;99.90;;;;;;4954271;28;20462;-77
2020/12/07 13:13:25;;;;;;;6.80;4.82;;;5.60;99.90;;;;;;4971764;28;20175;-77
2020/12/07 13:16:00;;;;;;;6.17;5.23;;;5.60;99.90;;;;;;4968031;28;20325;-77
2020/12/07 13:18:27;;;;;;;6.35;5.00;;;5.50;99.90;;;;;;4964051;28;20453;-77
2020/12/07 13:24:03;;;;;;;5.18;4.68;;;5.40;99.90;;;;;;4889392;29;20744;-78
2020/12/07 13:26:52;;;;;;;6.22;5.53;;;5.40;99.90;;;;;;4884814;29;20190;-77